createdAt,value
2023-04-05T00:02:21.291Z,62.10
2023-04-05T00:04:52.462Z,62.50
2023-04-05T00:07:21.523Z,62.60
2023-04-05T00:09:49.309Z,62.80
2023-04-05T00:12:16.291Z,63.00
2023-04-05T00:14:43.254Z,63.20
2023-04-05T00:17:11.994Z,63.50
2023-04-05T00:19:39.524Z,63.70
2023-04-05T00:22:06.418Z,63.80
2023-04-05T00:24:34.032Z,63.90
2023-04-05T00:27:01.365Z,64.00
2023-04-05T00:29:28.495Z,64.70
2023-04-05T00:31:56.260Z,63.90
2023-04-05T00:34:23.326Z,63.90
2023-04-05T00:36:50.510Z,63.70
2023-04-05T00:39:17.668Z,63.60
2023-04-05T00:41:45.828Z,63.60
2023-04-05T00:44:15.016Z,63.40
2023-04-05T00:46:42.301Z,63.30
2023-04-05T00:49:09.612Z,63.50
2023-04-05T00:51:38.059Z,63.50
2023-04-05T00:54:05.343Z,63.50
2023-04-05T00:56:32.744Z,63.50
2023-04-05T00:58:59.682Z,63.50
2023-04-05T01:01:27.881Z,63.60
2023-04-05T01:04:02.965Z,63.50
2023-04-05T01:06:40.914Z,63.60
2023-04-05T01:09:10.548Z,63.70
2023-04-05T01:11:39.481Z,63.90
2023-04-05T01:14:06.613Z,64.10
2023-04-05T01:16:33.498Z,64.30
2023-04-05T01:19:00.645Z,64.50
2023-04-05T01:21:39.829Z,64.60
2023-04-05T01:24:46.762Z,64.80
2023-04-05T01:27:43.808Z,65.00
2023-04-05T01:30:26.727Z,65.00
2023-04-05T01:32:59.412Z,64.90
2023-04-05T01:35:38.743Z,64.80
2023-04-05T01:38:06.781Z,64.90
2023-04-05T01:40:35.548Z,64.80
2023-04-05T01:43:03.201Z,64.90
2023-04-05T01:45:30.073Z,64.90
2023-04-05T01:47:57.393Z,64.80
2023-04-05T01:50:24.272Z,64.90
2023-04-05T01:52:51.416Z,64.70
2023-04-05T01:55:18.208Z,64.60
2023-04-05T01:57:45.027Z,64.40
2023-04-05T02:00:12.237Z,64.30
2023-04-05T02:02:41.790Z,64.20
2023-04-05T02:05:09.324Z,64.20
2023-04-05T02:07:36.432Z,64.20
2023-04-05T02:10:03.355Z,64.20
2023-04-05T02:12:30.357Z,64.30
2023-04-05T02:14:57.310Z,64.40
2023-04-05T02:17:24.400Z,64.50
2023-04-05T02:19:53.221Z,64.50
2023-04-05T02:22:20.253Z,64.50
2023-04-05T02:24:47.069Z,64.60
2023-04-05T02:27:14.498Z,64.60
2023-04-05T02:29:41.327Z,64.60
2023-04-05T02:32:08.148Z,64.70
2023-04-05T02:34:37.070Z,64.70
2023-04-05T02:37:03.982Z,64.80
2023-04-05T02:39:30.764Z,65.00
2023-04-05T02:41:57.662Z,65.10
2023-04-05T02:44:24.699Z,65.20
2023-04-05T02:46:53.538Z,65.20
2023-04-05T02:49:26.233Z,65.20
2023-04-05T02:51:56.064Z,65.20
2023-04-05T02:54:22.880Z,65.20
2023-04-05T02:56:57.764Z,64.90
2023-04-05T02:59:27.227Z,64.90
2023-04-05T03:01:54.148Z,64.80
2023-04-05T03:04:26.916Z,65.40
2023-04-05T03:06:59.400Z,64.40
2023-04-05T03:09:29.266Z,64.20
2023-04-05T03:12:03.611Z,64.30
2023-04-05T03:14:34.450Z,64.30
2023-04-05T03:17:04.323Z,64.30
2023-04-05T03:19:36.835Z,64.20
2023-04-05T03:22:13.103Z,64.20
2023-04-05T03:24:42.964Z,64.30
2023-04-05T03:27:13.212Z,64.30
2023-04-05T03:29:56.145Z,64.30
2023-04-05T03:32:23.122Z,64.30
2023-04-05T03:34:57.319Z,64.40
2023-04-05T03:37:24.854Z,64.50
2023-04-05T03:40:00.359Z,64.40
2023-04-05T03:42:27.654Z,64.30
2023-04-05T03:44:55.220Z,64.30
2023-04-05T03:47:22.650Z,64.20
2023-04-05T03:49:50.760Z,64.00
2023-04-05T03:52:17.607Z,63.70
2023-04-05T03:54:45.758Z,63.70
2023-04-05T03:57:16.633Z,63.70
2023-04-05T03:59:45.107Z,63.80
2023-04-05T04:02:12.954Z,63.70
2023-04-05T04:04:39.881Z,63.50
2023-04-05T04:07:06.879Z,63.40
2023-04-05T04:09:34.381Z,63.30
2023-04-05T04:12:07.414Z,63.10
2023-04-05T04:14:38.773Z,62.90
2023-04-05T04:17:29.720Z,62.90
2023-04-05T04:20:32.195Z,62.80
2023-04-05T04:23:21.900Z,62.80
2023-04-05T04:26:29.360Z,62.80
2023-04-05T04:29:17.282Z,62.90
2023-04-05T04:32:05.865Z,62.50
2023-04-05T04:34:48.076Z,62.40
2023-04-05T04:37:32.155Z,62.30
2023-04-05T04:40:40.059Z,62.30
2023-04-05T04:43:29.507Z,62.20
2023-04-05T04:46:15.197Z,62.30
2023-04-05T04:49:06.096Z,62.40
2023-04-05T04:51:33.397Z,62.40
2023-04-05T04:54:00.257Z,62.40
2023-04-05T04:56:27.481Z,62.30
2023-04-05T04:58:56.788Z,62.20
2023-04-05T05:01:25.130Z,62.20
2023-04-05T05:03:52.343Z,62.30
2023-04-05T05:06:27.253Z,62.20
2023-04-05T05:08:54.491Z,62.20
2023-04-05T05:11:21.267Z,62.40
2023-04-05T05:13:51.856Z,62.60
2023-04-05T05:16:23.480Z,62.50
2023-04-05T05:18:51.323Z,62.30
2023-04-05T05:21:18.164Z,62.20
2023-04-05T05:23:51.930Z,62.00
2023-04-05T05:26:18.842Z,61.90
2023-04-05T05:28:46.846Z,61.90
2023-04-05T05:31:14.301Z,61.90
2023-04-05T05:33:41.222Z,61.80
2023-04-05T05:36:08.270Z,61.70
2023-04-05T05:38:35.091Z,61.50
2023-04-05T05:41:02.199Z,61.30
2023-04-05T05:43:29.092Z,61.00
2023-04-05T05:45:56.337Z,61.00
2023-04-05T05:48:23.286Z,60.70
2023-04-05T05:50:50.566Z,60.30
2023-04-05T05:53:17.375Z,60.00
2023-04-05T05:55:44.382Z,59.90
2023-04-05T05:58:11.307Z,59.90
2023-04-05T06:00:39.226Z,59.70
2023-04-05T06:03:06.521Z,59.40
2023-04-05T06:05:33.387Z,59.30
2023-04-05T06:08:00.442Z,59.20
2023-04-05T06:10:27.302Z,58.50
2023-04-05T06:12:54.281Z,58.20
2023-04-05T06:15:21.157Z,57.80
2023-04-05T06:17:48.083Z,56.70
2023-04-05T06:20:15.291Z,56.30
2023-04-05T06:22:42.632Z,56.20
2023-04-05T06:25:09.699Z,56.30
2023-04-05T06:27:36.480Z,56.20
2023-04-05T06:30:03.741Z,56.20
2023-04-05T06:32:30.794Z,55.60
2023-04-05T06:34:57.719Z,54.20
2023-04-05T06:37:24.598Z,52.50
2023-04-05T06:39:51.415Z,51.00
2023-04-05T06:42:18.263Z,50.50
2023-04-05T06:44:52.583Z,47.60
2023-04-05T06:47:19.483Z,47.10
2023-04-05T06:49:46.431Z,46.30
2023-04-05T06:52:13.496Z,45.30
2023-04-05T06:54:40.487Z,45.10
2023-04-05T06:57:07.568Z,44.30
2023-04-05T06:59:34.796Z,42.20
2023-04-05T07:02:02.017Z,42.20
2023-04-05T07:04:33.161Z,42.10
2023-04-05T07:07:02.247Z,41.90
2023-04-05T07:09:33.027Z,42.10
2023-04-05T07:12:00.205Z,40.10
2023-04-05T07:14:27.229Z,38.90
2023-04-05T07:16:54.007Z,38.70
2023-04-05T07:19:20.864Z,38.20
2023-04-05T07:21:48.347Z,36.20
2023-04-05T07:24:16.289Z,34.30
2023-04-05T07:26:43.068Z,33.00
2023-04-05T07:29:10.141Z,31.70
2023-04-05T07:31:38.077Z,31.00
2023-04-05T07:34:04.894Z,30.70
2023-04-05T07:36:31.826Z,32.00
2023-04-05T07:38:59.077Z,33.10
2023-04-05T07:41:26.566Z,31.70
2023-04-05T07:43:53.569Z,30.50
2023-04-05T07:46:20.788Z,29.70
2023-04-05T07:48:50.774Z,29.80
2023-04-05T07:51:17.609Z,30.80
2023-04-05T07:53:44.450Z,31.30
2023-04-05T07:56:12.371Z,32.20
2023-04-05T07:58:42.162Z,31.70
2023-04-05T08:01:10.061Z,30.30
2023-04-05T08:03:39.621Z,30.60
2023-04-05T08:06:11.508Z,29.80
2023-04-05T08:08:38.444Z,28.60
2023-04-05T08:11:05.316Z,29.00
2023-04-05T08:13:33.878Z,29.00
2023-04-05T08:16:02.230Z,29.30
2023-04-05T08:18:29.293Z,28.20
2023-04-05T08:20:56.852Z,27.60
2023-04-05T08:23:24.011Z,28.70
2023-04-05T08:25:51.438Z,29.10
2023-04-05T08:28:18.416Z,28.10
2023-04-05T08:30:46.020Z,28.30
2023-04-05T08:33:12.937Z,28.80
2023-04-05T08:35:40.221Z,29.60
2023-04-05T08:38:07.140Z,30.40
2023-04-05T08:40:40.143Z,31.30
2023-04-05T08:43:25.966Z,32.70
2023-04-05T08:45:54.072Z,33.10
2023-04-05T08:48:21.223Z,34.10
2023-04-05T08:50:52.339Z,34.40
2023-04-05T08:53:19.563Z,35.10
2023-04-05T08:55:50.789Z,36.20
2023-04-05T08:58:18.925Z,37.10
2023-04-05T09:00:46.345Z,37.40
2023-04-05T09:03:16.067Z,37.80
2023-04-05T09:05:46.747Z,38.10
2023-04-05T09:08:13.851Z,37.80
2023-04-05T09:10:41.165Z,37.00
2023-04-05T09:13:11.165Z,36.60
2023-04-05T09:15:38.707Z,36.80
2023-04-05T09:18:12.378Z,36.70
2023-04-05T09:20:42.948Z,36.50
2023-04-05T09:23:09.882Z,37.10
2023-04-05T09:25:39.309Z,37.60
2023-04-05T09:28:06.955Z,38.30
2023-04-05T09:30:34.970Z,38.30
2023-04-05T09:33:03.276Z,38.90
2023-04-05T09:35:31.052Z,39.10
2023-04-05T09:38:01.654Z,39.10
2023-04-05T09:40:49.130Z,39.20
2023-04-05T09:43:44.399Z,38.70
2023-04-05T09:46:31.282Z,38.70
2023-04-05T09:48:58.636Z,38.50
2023-04-05T09:51:31.528Z,37.90
2023-04-05T09:53:59.626Z,38.10
2023-04-05T09:56:27.428Z,38.40
2023-04-05T09:58:59.265Z,38.60
2023-04-05T10:01:32.359Z,39.00
2023-04-05T10:04:03.044Z,39.10
2023-04-05T10:06:37.562Z,39.10
2023-04-05T10:09:06.292Z,39.00
2023-04-05T10:11:34.296Z,39.50
2023-04-05T10:14:03.880Z,40.20
2023-04-05T10:16:33.466Z,40.30
2023-04-05T10:19:00.957Z,40.00
2023-04-05T10:21:29.764Z,40.00
2023-04-05T10:24:04.767Z,39.30
2023-04-05T10:26:44.914Z,37.50
2023-04-05T10:29:19.876Z,33.00
2023-04-05T10:31:49.577Z,30.70
2023-04-05T10:34:35.957Z,29.80
2023-04-05T10:37:03.535Z,30.00
2023-04-05T10:39:36.122Z,28.70
2023-04-05T10:42:22.168Z,29.30
2023-04-05T10:44:53.185Z,29.50
2023-04-05T10:47:23.602Z,29.70
2023-04-05T10:49:53.598Z,29.30
2023-04-05T10:52:21.163Z,29.10
2023-04-05T10:54:49.104Z,30.20
2023-04-05T10:57:17.991Z,31.00
2023-04-05T10:59:45.784Z,31.60
2023-04-05T11:02:13.871Z,31.70
2023-04-05T11:04:42.531Z,31.90
2023-04-05T11:07:13.117Z,31.60
2023-04-05T11:09:56.673Z,30.40
2023-04-05T11:12:42.369Z,29.10
2023-04-05T11:15:30.536Z,27.20
2023-04-05T11:18:03.759Z,26.00
2023-04-05T11:20:47.310Z,26.10
2023-04-05T11:23:18.887Z,25.50
2023-04-05T11:25:47.078Z,25.70
2023-04-05T11:28:26.164Z,25.90
2023-04-05T11:30:57.257Z,26.40
2023-04-05T11:33:56.898Z,26.70
2023-04-05T11:36:41.948Z,27.20
2023-04-05T11:39:18.019Z,28.90
2023-04-05T11:41:48.721Z,29.80
2023-04-05T11:44:18.817Z,29.60
2023-04-05T11:46:49.000Z,28.70
2023-04-05T11:49:16.672Z,27.50
2023-04-05T11:51:43.988Z,26.90
2023-04-05T11:54:10.929Z,24.80
2023-04-05T11:56:38.007Z,25.00
2023-04-05T11:59:04.802Z,26.00
2023-04-05T12:01:31.613Z,28.00
2023-04-05T12:03:58.564Z,29.10
2023-04-05T12:06:26.356Z,29.20
2023-04-05T12:08:55.940Z,28.30
2023-04-05T12:11:31.096Z,27.00
2023-04-05T12:14:01.882Z,25.80
2023-04-05T12:16:29.365Z,24.20
2023-04-05T12:18:57.284Z,24.70
2023-04-05T12:21:24.461Z,26.00
2023-04-05T12:23:51.852Z,27.20
2023-04-05T12:26:19.035Z,28.20
2023-04-05T12:28:59.097Z,29.30
2023-04-05T12:31:45.069Z,29.00
2023-04-05T12:34:13.272Z,28.90
2023-04-05T12:36:44.477Z,30.00
2023-04-05T12:39:11.598Z,31.00
2023-04-05T12:41:38.525Z,30.20
2023-04-05T12:44:25.567Z,29.30
2023-04-05T12:46:59.484Z,28.70
2023-04-05T12:49:27.632Z,28.60
2023-04-05T12:51:54.428Z,27.50
2023-04-05T12:54:23.166Z,28.40
2023-04-05T12:56:50.715Z,29.60
2023-04-05T12:59:17.668Z,30.60
2023-04-05T13:01:44.617Z,29.70
2023-04-05T13:06:41.446Z,27.60
2023-04-05T13:09:08.527Z,27.80
2023-04-05T13:11:35.604Z,29.00
2023-04-05T13:14:02.419Z,29.90
2023-04-05T13:16:29.305Z,31.20
2023-04-05T13:18:56.265Z,32.60
2023-04-05T13:21:24.758Z,32.60
2023-04-05T13:23:52.362Z,32.30
2023-04-05T13:26:19.275Z,31.80
2023-04-05T13:28:46.100Z,30.00
2023-04-05T13:31:14.455Z,29.00
2023-04-05T13:33:42.824Z,28.90
2023-04-05T13:36:11.037Z,28.50
2023-04-05T13:38:38.256Z,29.40
2023-04-05T13:41:05.613Z,30.00
2023-04-05T13:43:32.535Z,30.20
2023-04-05T13:45:59.621Z,29.90
2023-04-05T13:48:26.791Z,29.90
2023-04-05T13:50:53.692Z,30.50
2023-04-05T13:53:20.524Z,31.40
2023-04-05T13:55:47.609Z,32.70
2023-04-05T13:58:14.872Z,33.30
2023-04-05T14:00:42.106Z,34.10
2023-04-05T14:03:09.438Z,34.90
2023-04-05T14:05:36.476Z,34.10
2023-04-05T14:08:03.321Z,33.20
2023-04-05T14:10:31.592Z,33.20
2023-04-05T14:12:58.479Z,33.60
2023-04-05T14:15:25.744Z,34.30
2023-04-05T14:17:52.803Z,35.30
2023-04-05T14:20:19.766Z,36.20
2023-04-05T14:22:46.716Z,36.10
2023-04-05T14:25:13.561Z,35.70
2023-04-05T14:27:42.036Z,34.70
2023-04-05T14:30:10.271Z,34.20
2023-04-05T14:32:37.211Z,34.00
2023-04-05T14:35:04.357Z,34.30
2023-04-05T14:37:31.267Z,35.00
2023-04-05T14:39:58.172Z,35.90
2023-04-05T14:42:34.025Z,36.40
2023-04-05T14:45:08.659Z,36.00
2023-04-05T14:47:36.045Z,35.00
2023-04-05T14:50:03.011Z,35.00
2023-04-05T14:52:30.331Z,34.80
2023-04-05T14:54:58.005Z,35.60
2023-04-05T14:57:25.021Z,36.10
2023-04-05T14:59:51.846Z,35.60
2023-04-05T15:02:18.838Z,34.80
2023-04-05T15:04:45.814Z,34.20
2023-04-05T15:07:13.180Z,34.20
2023-04-05T15:09:40.056Z,35.10
2023-04-05T15:12:07.025Z,34.70
2023-04-05T15:14:34.119Z,34.50
2023-04-05T15:17:01.163Z,34.70
2023-04-05T15:19:28.029Z,34.10
2023-04-05T15:21:55.551Z,33.80
2023-04-05T15:24:22.466Z,34.40
2023-04-05T15:26:49.344Z,35.10
2023-04-05T15:29:16.184Z,36.20
2023-04-05T15:31:43.011Z,36.80
2023-04-05T15:34:09.884Z,36.80
2023-04-05T15:36:36.725Z,36.90
2023-04-05T15:39:05.190Z,37.00
2023-04-05T15:41:33.297Z,37.50
2023-04-05T15:44:00.578Z,38.00
2023-04-05T15:46:29.195Z,38.00
2023-04-05T15:48:56.310Z,38.30
2023-04-05T15:51:23.446Z,38.80
2023-04-05T15:53:50.984Z,39.10
2023-04-05T15:56:18.267Z,39.10
2023-04-05T15:58:45.375Z,39.40
2023-04-05T16:01:12.329Z,39.80
2023-04-05T16:03:39.382Z,40.00
2023-04-05T16:06:06.617Z,40.10
2023-04-05T16:08:33.533Z,40.30
2023-04-05T16:11:00.699Z,40.60
2023-04-05T16:13:27.587Z,41.00
2023-04-05T16:15:54.442Z,41.30
2023-04-05T16:18:21.486Z,41.30
2023-04-05T16:20:48.591Z,41.20
2023-04-05T16:23:15.637Z,41.30
2023-04-05T16:25:42.591Z,41.50
2023-04-05T16:28:09.634Z,41.70
2023-04-05T16:30:38.922Z,42.60
2023-04-05T16:33:06.038Z,43.30
2023-04-05T16:35:33.104Z,43.60
2023-04-05T16:38:00.252Z,43.10
2023-04-05T16:40:27.218Z,43.80
2023-04-05T16:42:56.769Z,44.20
2023-04-05T16:45:23.696Z,44.40
2023-04-05T16:47:50.810Z,44.80
2023-04-05T16:50:17.982Z,45.00
2023-04-05T16:52:45.318Z,45.00
2023-04-05T16:55:12.251Z,45.30
2023-04-05T16:57:39.146Z,45.30
2023-04-05T17:00:06.345Z,45.50
2023-04-05T17:02:33.302Z,45.90
2023-04-05T17:05:00.263Z,46.10
2023-04-05T17:07:27.361Z,46.10
2023-04-05T17:09:54.284Z,46.50
2023-04-05T17:12:21.308Z,46.60
2023-04-05T17:14:48.168Z,46.90
2023-04-05T17:17:15.012Z,47.40
2023-04-05T17:19:42.293Z,47.50
2023-04-05T17:22:09.256Z,47.60
2023-04-05T17:24:36.894Z,46.60
2023-04-05T17:27:04.488Z,45.70
2023-04-05T17:29:31.355Z,44.40
2023-04-05T17:31:58.287Z,43.60
2023-04-05T17:34:25.341Z,43.00
2023-04-05T17:36:53.187Z,43.30
2023-04-05T17:39:20.024Z,43.40
2023-04-05T17:41:46.900Z,43.70
2023-04-05T17:44:14.756Z,44.90
2023-04-05T17:46:48.521Z,45.50
2023-04-05T17:49:21.145Z,45.90
2023-04-05T17:51:48.455Z,46.00
2023-04-05T17:54:15.630Z,46.20
2023-04-05T17:56:42.763Z,46.30
2023-04-05T17:59:09.919Z,46.30
2023-04-05T18:01:37.921Z,46.40
2023-04-05T18:04:05.857Z,46.90
2023-04-05T18:06:33.631Z,47.40
2023-04-05T18:09:02.584Z,47.60
2023-04-05T18:11:29.718Z,47.90
2023-04-05T18:13:56.695Z,48.20
2023-04-05T18:16:23.700Z,48.40
2023-04-05T18:18:50.750Z,48.60
2023-04-05T18:21:17.709Z,49.00
2023-04-05T18:23:45.065Z,49.30
2023-04-05T18:26:13.781Z,49.60
2023-04-05T18:28:40.630Z,49.80
2023-04-05T18:31:10.321Z,50.10
2023-04-05T18:33:39.366Z,50.40
2023-04-05T18:36:06.743Z,50.60
2023-04-05T18:38:33.569Z,50.80
2023-04-05T18:41:02.003Z,51.10
2023-04-05T18:43:28.930Z,51.40
2023-04-05T18:45:55.836Z,51.70
2023-04-05T18:48:25.113Z,51.90
2023-04-05T18:50:53.943Z,52.00
2023-04-05T18:53:21.370Z,52.20
2023-04-05T18:55:51.407Z,52.40
2023-04-05T18:58:18.399Z,52.70
2023-04-05T19:00:45.279Z,53.00
2023-04-05T19:03:12.239Z,53.20
2023-04-05T19:05:39.319Z,53.40
2023-04-05T19:08:06.331Z,53.70
2023-04-05T19:10:33.397Z,53.90
2023-04-05T19:13:00.372Z,54.00
2023-04-05T19:15:27.540Z,53.90
2023-04-05T19:17:54.639Z,53.60
2023-04-05T19:20:21.783Z,53.30
2023-04-05T19:22:48.730Z,53.20
2023-04-05T19:25:16.085Z,53.10
2023-04-05T19:27:43.101Z,53.00
2023-04-05T19:30:10.507Z,53.10
2023-04-05T19:32:37.682Z,53.20
2023-04-05T19:35:07.493Z,53.30
2023-04-05T19:37:34.693Z,53.20
2023-04-05T19:40:02.247Z,53.20
2023-04-05T19:42:29.192Z,53.40
2023-04-05T19:44:58.302Z,53.40
2023-04-05T19:47:26.456Z,53.40
2023-04-05T19:49:58.537Z,53.60
2023-04-05T19:52:37.678Z,53.50
2023-04-05T19:55:28.839Z,53.60
2023-04-05T19:57:56.193Z,53.70
2023-04-05T20:00:35.117Z,53.70
2023-04-05T20:03:02.540Z,53.70
2023-04-05T20:05:48.001Z,53.80
2023-04-05T20:08:15.592Z,54.00
2023-04-05T20:10:49.177Z,53.90
2023-04-05T20:13:16.323Z,53.90
2023-04-05T20:15:45.840Z,53.90
2023-04-05T20:18:22.256Z,54.00
2023-04-05T20:20:49.313Z,54.10
2023-04-05T20:23:22.579Z,54.10
2023-04-05T20:25:51.120Z,54.20
2023-04-05T20:28:38.213Z,54.40
2023-04-05T20:31:06.736Z,54.60
2023-04-05T20:33:37.547Z,54.60
2023-04-05T20:36:11.402Z,54.70
2023-04-05T20:38:38.708Z,54.80
2023-04-05T20:41:06.398Z,54.70
2023-04-05T20:43:34.221Z,54.60
2023-04-05T20:46:05.296Z,54.70
2023-04-05T20:48:33.927Z,54.80
2023-04-05T20:51:02.487Z,54.80
2023-04-05T20:53:30.078Z,54.90
2023-04-05T20:55:59.083Z,54.90
2023-04-05T20:58:27.608Z,54.80
2023-04-05T21:00:55.828Z,55.00
2023-04-05T21:03:23.579Z,54.90
2023-04-05T21:05:51.241Z,54.90
2023-04-05T21:08:18.604Z,55.00
2023-04-05T21:10:46.111Z,55.00
2023-04-05T21:13:16.090Z,55.10
2023-04-05T21:15:44.998Z,55.20
2023-04-05T21:18:12.677Z,55.30
2023-04-05T21:20:42.172Z,55.30
2023-04-05T21:23:09.823Z,55.40
2023-04-05T21:25:37.913Z,55.40
2023-04-05T21:28:04.974Z,55.40
2023-04-05T21:30:31.855Z,55.50
2023-04-05T21:33:00.720Z,55.60
2023-04-05T21:35:28.306Z,55.60
2023-04-05T21:37:55.282Z,55.50
2023-04-05T21:40:22.334Z,55.50
2023-04-05T21:42:49.281Z,55.50
2023-04-05T21:45:16.158Z,55.50
2023-04-05T21:47:43.044Z,55.70
2023-04-05T21:50:10.311Z,55.70
2023-04-05T21:52:37.467Z,55.60
2023-04-05T21:55:04.932Z,55.70
2023-04-05T21:57:33.769Z,55.80
2023-04-05T22:00:01.225Z,55.80
2023-04-05T22:02:28.174Z,55.80
2023-04-05T22:04:55.116Z,56.00
2023-04-05T22:07:22.230Z,56.00
2023-04-05T22:09:49.296Z,56.00
2023-04-05T22:12:16.211Z,56.00
2023-04-05T22:14:43.110Z,56.10
2023-04-05T22:17:09.983Z,56.10
2023-04-05T22:19:36.989Z,56.10
2023-04-05T22:22:03.821Z,56.30
2023-04-05T22:24:30.763Z,56.40
2023-04-05T22:26:57.934Z,56.50
2023-04-05T22:29:24.781Z,56.60
2023-04-05T22:31:51.650Z,56.70
2023-04-05T22:34:18.532Z,56.70
2023-04-05T22:36:45.404Z,56.90
2023-04-05T22:39:12.336Z,56.90
2023-04-05T22:41:39.190Z,56.90
2023-04-05T22:44:06.461Z,57.00
2023-04-05T22:46:33.408Z,56.90
2023-04-05T22:49:01.263Z,56.80
2023-04-05T22:51:28.165Z,57.00
2023-04-05T22:53:56.354Z,57.10
2023-04-05T22:56:24.074Z,57.20
2023-04-05T22:58:51.417Z,57.20
2023-04-05T23:01:18.796Z,57.30
2023-04-05T23:03:46.376Z,57.20
2023-04-05T23:06:13.896Z,57.20
2023-04-05T23:08:40.800Z,57.30
2023-04-05T23:11:07.722Z,57.30
2023-04-05T23:13:34.616Z,57.30
2023-04-05T23:16:01.770Z,57.20
2023-04-05T23:18:28.686Z,57.80
2023-04-05T23:20:55.570Z,57.00
2023-04-05T23:23:22.455Z,56.90
2023-04-05T23:25:49.335Z,56.70
2023-04-05T23:28:16.303Z,56.70
2023-04-05T23:30:43.172Z,56.60
2023-04-05T23:33:13.105Z,56.60
2023-04-05T23:35:41.089Z,56.60
2023-04-05T23:38:07.929Z,56.50
2023-04-05T23:40:34.780Z,56.50
2023-04-05T23:43:01.833Z,56.40
2023-04-05T23:45:28.885Z,56.20
2023-04-05T23:47:56.607Z,56.10
2023-04-05T23:50:23.473Z,56.00
2023-04-05T23:52:50.572Z,55.90
2023-04-05T23:55:17.429Z,55.80
2023-04-05T23:57:44.337Z,55.80
